createdAt,value
2023-07-25T00:01:17.980Z,100.00
2023-07-25T00:03:49.239Z,100.00
2023-07-25T00:06:18.936Z,100.00
2023-07-25T00:08:49.172Z,100.00
2023-07-25T00:11:17.345Z,100.00
2023-07-25T00:13:45.403Z,100.00
2023-07-25T00:16:13.525Z,100.00
2023-07-25T00:18:41.580Z,100.00
2023-07-25T00:21:09.958Z,100.00
2023-07-25T00:23:38.253Z,100.00
2023-07-25T00:26:06.290Z,100.00
2023-07-25T00:28:34.219Z,100.00
2023-07-25T00:31:11.136Z,100.00
2023-07-25T00:33:39.916Z,100.00
2023-07-25T00:36:08.206Z,100.00
2023-07-25T00:38:36.560Z,100.00
2023-07-25T00:41:04.458Z,100.00
2023-07-25T00:43:32.749Z,100.00
2023-07-25T00:46:01.086Z,100.00
2023-07-25T00:48:31.495Z,100.00
2023-07-25T00:50:59.510Z,100.00
2023-07-25T00:53:28.705Z,100.00
2023-07-25T00:55:57.444Z,100.00
2023-07-25T00:58:25.520Z,100.00
2023-07-25T01:01:04.926Z,100.00
2023-07-25T01:03:35.748Z,100.00
2023-07-25T01:06:06.628Z,100.00
2023-07-25T01:08:34.736Z,100.00
2023-07-25T01:11:02.855Z,100.00
2023-07-25T01:13:30.885Z,100.00
2023-07-25T01:15:59.256Z,100.00
2023-07-25T01:18:27.506Z,100.00
2023-07-25T01:20:56.031Z,100.00
2023-07-25T01:23:25.360Z,100.00
2023-07-25T01:25:54.286Z,100.00
2023-07-25T01:28:24.471Z,100.00
2023-07-25T01:30:52.535Z,100.00
2023-07-25T01:33:20.548Z,100.00
2023-07-25T01:35:48.561Z,100.00
2023-07-25T01:38:17.709Z,100.00
2023-07-25T01:40:45.865Z,100.00
2023-07-25T01:43:13.957Z,100.00
2023-07-25T01:45:42.161Z,100.00
2023-07-25T01:48:10.233Z,100.00
2023-07-25T01:50:38.535Z,100.00
2023-07-25T01:53:06.551Z,100.00
2023-07-25T01:55:34.771Z,100.00
2023-07-25T01:58:02.865Z,100.00
2023-07-25T02:00:30.888Z,100.00
2023-07-25T02:02:59.259Z,100.00
2023-07-25T02:05:27.474Z,100.00
2023-07-25T02:07:55.490Z,100.00
2023-07-25T02:10:23.958Z,100.00
2023-07-25T02:12:53.219Z,100.00
2023-07-25T02:15:21.430Z,100.00
2023-07-25T02:17:50.442Z,100.00
2023-07-25T02:20:18.871Z,100.00
2023-07-25T02:22:46.856Z,100.00
2023-07-25T02:25:14.857Z,100.00
2023-07-25T02:27:43.211Z,100.00
2023-07-25T02:30:12.398Z,100.00
2023-07-25T02:32:40.743Z,100.00
2023-07-25T02:35:09.161Z,100.00
2023-07-25T02:37:37.273Z,100.00
2023-07-25T02:40:06.162Z,100.00
2023-07-25T02:42:34.728Z,100.00
2023-07-25T02:45:03.542Z,100.00
2023-07-25T02:47:31.843Z,100.00
2023-07-25T02:49:59.992Z,100.00
2023-07-25T02:52:27.924Z,100.00
2023-07-25T02:54:55.941Z,100.00
2023-07-25T02:57:24.077Z,100.00
2023-07-25T02:59:52.196Z,100.00
2023-07-25T03:02:20.596Z,100.00
2023-07-25T03:04:48.640Z,100.00
2023-07-25T03:07:16.569Z,100.00
2023-07-25T03:09:45.514Z,100.00
2023-07-25T03:12:13.762Z,100.00
2023-07-25T03:14:41.736Z,100.00
2023-07-25T03:17:09.801Z,100.00
2023-07-25T03:19:37.909Z,100.00
2023-07-25T03:22:06.239Z,100.00
2023-07-25T03:24:34.383Z,100.00
2023-07-25T03:27:02.616Z,100.00
2023-07-25T03:29:30.550Z,100.00
2023-07-25T03:31:58.727Z,100.00
2023-07-25T03:34:26.834Z,100.00
2023-07-25T03:36:54.843Z,100.00
2023-07-25T03:39:22.979Z,100.00
2023-07-25T03:41:51.110Z,100.00
2023-07-25T03:44:20.604Z,100.00
2023-07-25T03:46:48.812Z,100.00
2023-07-25T03:49:17.029Z,100.00
2023-07-25T03:51:44.996Z,100.00
2023-07-25T03:54:13.173Z,100.00
2023-07-25T03:56:41.342Z,100.00
2023-07-25T03:59:09.482Z,100.00
2023-07-25T04:01:37.574Z,100.00
2023-07-25T04:04:05.922Z,100.00
2023-07-25T04:06:33.940Z,100.00
2023-07-25T04:09:03.086Z,100.00
2023-07-25T04:11:31.446Z,100.00
2023-07-25T04:13:59.722Z,100.00
2023-07-25T04:16:27.866Z,100.00
2023-07-25T04:18:55.990Z,100.00
2023-07-25T04:21:23.996Z,100.00
2023-07-25T04:23:52.180Z,100.00
2023-07-25T04:26:20.291Z,100.00
2023-07-25T04:28:49.682Z,100.00
2023-07-25T04:31:17.828Z,100.00
2023-07-25T04:33:47.621Z,100.00
2023-07-25T04:36:15.705Z,100.00
2023-07-25T04:38:43.838Z,100.00
2023-07-25T04:41:12.626Z,100.00
2023-07-25T04:43:40.728Z,100.00
2023-07-25T04:46:09.120Z,100.00
2023-07-25T04:48:37.294Z,100.00
2023-07-25T04:51:05.496Z,100.00
2023-07-25T04:53:35.213Z,100.00
2023-07-25T04:56:03.512Z,100.00
2023-07-25T04:58:31.568Z,100.00
2023-07-25T05:00:59.882Z,100.00
2023-07-25T05:03:28.416Z,100.00
2023-07-25T05:05:58.065Z,100.00
2023-07-25T05:08:26.114Z,100.00
2023-07-25T05:10:55.246Z,100.00
2023-07-25T05:13:23.726Z,100.00
2023-07-25T05:15:51.758Z,100.00
2023-07-25T05:18:20.028Z,100.00
2023-07-25T05:20:48.217Z,100.00
2023-07-25T05:23:16.295Z,100.00
2023-07-25T05:25:46.521Z,100.00
2023-07-25T05:28:15.083Z,100.00
2023-07-25T05:30:43.143Z,100.00
2023-07-25T05:33:11.420Z,100.00
2023-07-25T05:35:39.706Z,100.00
2023-07-25T05:38:09.535Z,100.00
2023-07-25T05:40:38.461Z,100.00
2023-07-25T05:43:06.727Z,100.00
2023-07-25T05:45:35.112Z,100.00
2023-07-25T05:48:03.371Z,100.00
2023-07-25T05:50:31.521Z,100.00
2023-07-25T05:52:59.851Z,100.00
2023-07-25T05:55:28.148Z,100.00
2023-07-25T05:57:56.392Z,100.00
2023-07-25T06:00:24.789Z,100.00
2023-07-25T06:02:54.046Z,100.00
2023-07-25T06:05:22.302Z,100.00
2023-07-25T06:07:50.476Z,100.00
2023-07-25T06:10:18.684Z,100.00
2023-07-25T06:12:46.921Z,100.00
2023-07-25T06:15:15.201Z,100.00
2023-07-25T06:17:43.911Z,100.00
2023-07-25T06:20:14.288Z,100.00
2023-07-25T06:22:42.441Z,100.00
2023-07-25T06:25:10.985Z,100.00
2023-07-25T06:27:39.464Z,100.00
2023-07-25T06:30:08.632Z,100.00
2023-07-25T06:32:39.128Z,100.00
2023-07-25T06:35:07.849Z,100.00
2023-07-25T06:37:37.336Z,100.00
2023-07-25T06:40:06.646Z,100.00
2023-07-25T06:42:35.058Z,100.00
2023-07-25T06:45:09.208Z,100.00
2023-07-25T06:47:37.411Z,100.00
2023-07-25T06:50:06.081Z,100.00
2023-07-25T06:52:34.334Z,100.00
2023-07-25T06:55:02.448Z,100.00
2023-07-25T06:57:30.685Z,100.00
2023-07-25T06:59:58.915Z,100.00
2023-07-25T07:02:27.143Z,100.00
2023-07-25T07:04:57.281Z,100.00
2023-07-25T07:07:25.638Z,100.00
2023-07-25T07:09:53.850Z,100.00
2023-07-25T07:12:21.890Z,100.00
2023-07-25T07:14:49.881Z,100.00
2023-07-25T07:17:19.194Z,100.00
2023-07-25T07:19:47.366Z,100.00
2023-07-25T07:22:15.519Z,100.00
2023-07-25T07:24:43.646Z,100.00
2023-07-25T07:27:11.692Z,100.00
2023-07-25T07:29:39.784Z,100.00
2023-07-25T07:32:08.331Z,100.00
2023-07-25T07:34:36.292Z,100.00
2023-07-25T07:37:05.523Z,100.00
2023-07-25T07:39:33.695Z,100.00
2023-07-25T07:42:03.238Z,100.00
2023-07-25T07:44:31.520Z,100.00
2023-07-25T07:46:59.719Z,100.00
2023-07-25T07:49:27.726Z,100.00
2023-07-25T07:52:11.482Z,100.00
2023-07-25T07:54:43.608Z,100.00
2023-07-25T07:57:11.659Z,100.00
2023-07-25T07:59:39.822Z,100.00
2023-07-25T08:02:10.431Z,100.00
2023-07-25T08:04:38.755Z,100.00
2023-07-25T08:07:07.295Z,100.00
2023-07-25T08:09:36.041Z,100.00
2023-07-25T08:12:06.919Z,100.00
2023-07-25T08:14:34.962Z,100.00
2023-07-25T08:17:03.416Z,100.00
2023-07-25T08:19:31.637Z,100.00
2023-07-25T08:21:59.895Z,100.00
2023-07-25T08:24:27.989Z,100.00
2023-07-25T08:26:56.145Z,100.00
2023-07-25T08:29:24.408Z,100.00
2023-07-25T08:31:52.804Z,100.00
2023-07-25T08:34:21.750Z,100.00
2023-07-25T08:36:50.475Z,100.00
2023-07-25T08:39:18.972Z,100.00
2023-07-25T08:41:57.020Z,100.00
2023-07-25T08:44:27.459Z,100.00
2023-07-25T08:46:57.726Z,100.00
2023-07-25T08:49:31.993Z,100.00
2023-07-25T08:52:02.385Z,100.00
2023-07-25T08:54:37.711Z,100.00
2023-07-25T08:57:06.957Z,100.00
2023-07-25T08:59:35.824Z,100.00
2023-07-25T09:02:05.006Z,100.00
2023-07-25T09:04:33.937Z,100.00
2023-07-25T09:07:02.398Z,100.00
2023-07-25T09:09:30.817Z,100.00
2023-07-25T09:11:59.373Z,100.00
2023-07-25T09:14:28.404Z,100.00
2023-07-25T09:16:56.681Z,100.00
2023-07-25T09:19:25.402Z,100.00
2023-07-25T09:21:54.956Z,100.00
2023-07-25T09:24:23.231Z,100.00
2023-07-25T09:26:52.806Z,100.00
2023-07-25T09:29:25.829Z,100.00
2023-07-25T09:31:54.568Z,100.00
2023-07-25T09:34:26.471Z,100.00
2023-07-25T09:36:54.936Z,100.00
2023-07-25T09:39:23.171Z,100.00
2023-07-25T09:41:52.367Z,100.00
2023-07-25T09:44:20.921Z,100.00
2023-07-25T09:46:54.435Z,100.00
2023-07-25T09:49:23.721Z,100.00
2023-07-25T09:52:04.610Z,100.00
2023-07-25T09:55:43.856Z,96.47
2023-07-25T09:58:13.518Z,97.62
2023-07-25T10:00:42.369Z,96.01
2023-07-25T10:03:11.590Z,95.64
2023-07-25T10:05:45.987Z,94.98
2023-07-25T10:08:15.535Z,95.30
2023-07-25T10:10:44.341Z,94.37
2023-07-25T10:13:12.860Z,95.22
2023-07-25T10:15:42.527Z,94.37
2023-07-25T10:18:25.445Z,94.05
2023-07-25T10:20:55.376Z,93.29
2023-07-25T10:23:35.925Z,94.34
2023-07-25T10:26:15.058Z,94.60
2023-07-25T10:28:43.749Z,95.10
2023-07-25T10:31:24.564Z,91.82
2023-07-25T10:33:59.676Z,90.05
2023-07-25T10:36:29.484Z,92.38
2023-07-25T10:39:09.643Z,91.35
2023-07-25T10:41:38.559Z,92.01
2023-07-25T10:44:07.624Z,91.87
2023-07-25T10:46:36.236Z,91.02
2023-07-25T10:49:16.055Z,88.61
2023-07-25T10:51:53.797Z,83.59
2023-07-25T10:54:25.973Z,80.57
2023-07-25T10:57:23.701Z,78.26
2023-07-25T11:00:06.666Z,78.28
2023-07-25T11:02:44.127Z,78.75
2023-07-25T11:05:15.627Z,79.97
2023-07-25T11:07:46.559Z,78.93
2023-07-25T11:10:25.733Z,79.31
2023-07-25T11:13:02.146Z,77.14
2023-07-25T11:15:46.553Z,77.84
2023-07-25T11:18:16.052Z,78.82
2023-07-25T11:20:44.400Z,78.24
2023-07-25T11:23:13.046Z,77.60
2023-07-25T11:25:41.369Z,76.07
2023-07-25T11:28:10.299Z,77.09
2023-07-25T11:30:45.474Z,76.31
2023-07-25T11:33:14.439Z,77.37
2023-07-25T11:35:42.828Z,77.96
2023-07-25T11:38:11.978Z,76.45
2023-07-25T11:40:42.290Z,73.82
2023-07-25T11:43:14.829Z,75.28
2023-07-25T11:45:45.851Z,73.49
2023-07-25T11:48:16.797Z,73.38
2023-07-25T11:50:50.372Z,76.12
2023-07-25T11:53:21.765Z,72.72
2023-07-25T11:55:53.860Z,72.44
2023-07-25T11:58:24.123Z,73.99
2023-07-25T12:00:55.946Z,71.36
2023-07-25T12:03:26.897Z,72.14
2023-07-25T12:06:01.117Z,70.19
2023-07-25T12:08:42.092Z,68.92
2023-07-25T12:11:12.223Z,69.09
2023-07-25T12:13:56.427Z,70.08
2023-07-25T12:16:37.541Z,68.00
2023-07-25T12:19:15.338Z,67.31
2023-07-25T12:21:45.660Z,68.66
2023-07-25T12:24:17.296Z,69.91
2023-07-25T12:26:49.089Z,69.96
2023-07-25T12:29:22.669Z,70.70
2023-07-25T12:31:52.259Z,70.65
2023-07-25T12:34:22.777Z,71.47
2023-07-25T12:36:52.918Z,74.50
2023-07-25T12:39:21.482Z,70.67
2023-07-25T12:41:49.480Z,70.88
2023-07-25T12:44:19.093Z,70.18
2023-07-25T12:46:47.310Z,70.29
2023-07-25T12:49:15.585Z,72.09
2023-07-25T12:51:44.182Z,69.80
2023-07-25T12:54:12.734Z,71.12
2023-07-25T12:56:41.862Z,70.08
2023-07-25T12:59:10.938Z,68.71
2023-07-25T13:01:39.158Z,69.40
2023-07-25T13:04:07.415Z,68.71
2023-07-25T13:06:36.193Z,69.69
2023-07-25T13:09:04.826Z,69.28
2023-07-25T13:11:33.320Z,70.52
2023-07-25T13:14:02.057Z,70.61
2023-07-25T13:16:31.073Z,71.50
2023-07-25T13:18:59.209Z,72.57
2023-07-25T13:21:27.907Z,71.51
2023-07-25T13:23:55.983Z,73.04
2023-07-25T13:26:24.219Z,74.12
2023-07-25T13:28:52.749Z,76.26
2023-07-25T13:31:20.904Z,73.73
2023-07-25T13:33:49.016Z,76.37
2023-07-25T13:36:17.607Z,73.49
2023-07-25T13:38:45.888Z,73.84
2023-07-25T13:41:14.378Z,71.80
2023-07-25T13:43:42.706Z,71.40
2023-07-25T13:46:10.831Z,72.88
2023-07-25T13:48:39.404Z,73.66
2023-07-25T13:51:08.103Z,74.10
2023-07-25T13:53:36.355Z,75.33
2023-07-25T13:56:05.385Z,78.76
2023-07-25T13:58:33.721Z,82.74
2023-07-25T14:01:01.857Z,78.57
2023-07-25T14:03:31.609Z,80.45
2023-07-25T14:06:00.098Z,85.23
2023-07-25T14:08:28.114Z,88.48
2023-07-25T14:10:56.281Z,88.91
2023-07-25T14:13:24.552Z,88.73
2023-07-25T14:15:54.665Z,88.45
2023-07-25T14:18:24.069Z,88.52
2023-07-25T14:20:54.307Z,88.74
2023-07-25T14:23:23.904Z,90.20
2023-07-25T14:25:52.195Z,89.26
2023-07-25T14:28:20.297Z,88.67
2023-07-25T14:30:48.482Z,90.52
2023-07-25T14:33:18.448Z,95.16
2023-07-25T14:35:46.925Z,100.00
2023-07-25T14:38:16.184Z,100.00
2023-07-25T14:40:45.181Z,100.00
2023-07-25T14:43:13.431Z,100.00
2023-07-25T14:45:41.663Z,100.00
2023-07-25T14:48:09.740Z,100.00
2023-07-25T14:50:38.261Z,100.00
2023-07-25T14:53:07.152Z,100.00
2023-07-25T14:55:35.641Z,100.00
2023-07-25T14:58:04.596Z,100.00
2023-07-25T15:00:34.016Z,100.00
2023-07-25T15:03:02.158Z,100.00
2023-07-25T15:05:30.568Z,100.00
2023-07-25T15:07:58.640Z,100.00
2023-07-25T15:10:26.955Z,100.00
2023-07-25T15:12:56.430Z,100.00
2023-07-25T15:15:24.752Z,100.00
2023-07-25T15:17:53.865Z,100.00
2023-07-25T15:20:24.303Z,100.00
2023-07-25T15:22:52.574Z,100.00
2023-07-25T15:25:20.774Z,100.00
2023-07-25T15:27:49.090Z,100.00
2023-07-25T15:30:18.630Z,100.00
2023-07-25T15:32:46.768Z,100.00
2023-07-25T15:35:15.107Z,100.00
2023-07-25T15:37:43.139Z,100.00
2023-07-25T15:40:11.687Z,100.00
2023-07-25T15:42:40.082Z,100.00
2023-07-25T15:45:08.610Z,100.00
2023-07-25T15:47:36.697Z,100.00
2023-07-25T15:50:06.272Z,100.00
2023-07-25T15:52:34.537Z,100.00
2023-07-25T15:55:05.083Z,100.00
2023-07-25T15:57:33.356Z,100.00
2023-07-25T16:00:01.819Z,100.00
2023-07-25T16:02:29.889Z,100.00
2023-07-25T16:04:59.174Z,100.00
2023-07-25T16:07:27.375Z,100.00
2023-07-25T16:09:55.998Z,100.00
2023-07-25T16:12:24.538Z,100.00
2023-07-25T16:14:52.716Z,100.00
2023-07-25T16:17:20.744Z,100.00
2023-07-25T16:19:49.390Z,100.00
2023-07-25T16:22:18.774Z,100.00
2023-07-25T16:24:47.905Z,100.00
2023-07-25T16:27:16.498Z,100.00
2023-07-25T16:29:45.066Z,100.00
2023-07-25T16:32:13.165Z,100.00
2023-07-25T16:34:41.476Z,100.00
2023-07-25T16:37:09.800Z,100.00
2023-07-25T16:39:38.007Z,100.00
2023-07-25T16:42:06.515Z,100.00
2023-07-25T16:44:34.517Z,100.00
2023-07-25T16:47:02.712Z,100.00
2023-07-25T16:49:30.944Z,100.00
2023-07-25T16:51:59.299Z,100.00
2023-07-25T16:54:27.423Z,100.00
2023-07-25T16:56:55.601Z,100.00
2023-07-25T16:59:23.866Z,100.00
2023-07-25T17:01:52.101Z,100.00
2023-07-25T17:04:20.970Z,100.00
2023-07-25T17:06:49.729Z,100.00
2023-07-25T17:09:18.064Z,100.00
2023-07-25T17:11:46.320Z,100.00
2023-07-25T17:14:14.391Z,100.00
2023-07-25T17:16:42.595Z,100.00
2023-07-25T17:19:11.463Z,100.00
2023-07-25T17:21:41.343Z,100.00
2023-07-25T17:24:09.940Z,100.00
2023-07-25T17:26:38.760Z,100.00
2023-07-25T17:29:07.237Z,100.00
2023-07-25T17:31:35.640Z,100.00
2023-07-25T17:34:05.542Z,100.00
2023-07-25T17:36:34.268Z,100.00
2023-07-25T17:39:02.519Z,100.00
2023-07-25T17:41:31.365Z,100.00
2023-07-25T17:43:59.819Z,100.00
2023-07-25T17:46:27.944Z,100.00
2023-07-25T17:48:58.218Z,100.00
2023-07-25T17:51:26.922Z,100.00
2023-07-25T17:53:55.261Z,100.00
2023-07-25T17:56:24.501Z,100.00
2023-07-25T17:58:52.619Z,100.00
2023-07-25T18:01:20.673Z,100.00
2023-07-25T18:03:48.994Z,100.00
2023-07-25T18:06:17.334Z,100.00
2023-07-25T18:08:46.893Z,100.00
2023-07-25T18:11:15.443Z,100.00
2023-07-25T18:13:43.468Z,100.00
2023-07-25T18:16:11.619Z,100.00
2023-07-25T18:18:39.864Z,100.00
2023-07-25T18:21:10.073Z,100.00
2023-07-25T18:23:38.725Z,100.00
2023-07-25T18:26:09.847Z,100.00
2023-07-25T18:28:38.271Z,100.00
2023-07-25T18:31:06.487Z,100.00
2023-07-25T18:33:35.196Z,100.00
2023-07-25T18:36:03.247Z,100.00
2023-07-25T18:38:31.460Z,100.00
2023-07-25T18:40:59.790Z,100.00
2023-07-25T18:43:29.681Z,100.00
2023-07-25T18:45:58.324Z,100.00
2023-07-25T18:48:27.993Z,100.00
2023-07-25T18:50:56.129Z,100.00
2023-07-25T18:53:24.263Z,100.00
2023-07-25T18:55:53.119Z,100.00
2023-07-25T18:58:21.735Z,100.00
2023-07-25T19:00:50.588Z,100.00
2023-07-25T19:03:20.936Z,100.00
2023-07-25T19:05:53.994Z,100.00
2023-07-25T19:08:22.500Z,100.00
2023-07-25T19:10:51.361Z,100.00
2023-07-25T19:13:19.484Z,100.00
2023-07-25T19:15:49.843Z,100.00
2023-07-25T19:18:18.856Z,100.00
2023-07-25T19:20:47.025Z,100.00
2023-07-25T19:23:26.118Z,100.00
2023-07-25T19:26:02.474Z,100.00
2023-07-25T19:28:31.036Z,100.00
2023-07-25T19:31:00.456Z,100.00
2023-07-25T19:33:29.471Z,100.00
2023-07-25T19:36:00.287Z,100.00
2023-07-25T19:38:32.319Z,100.00
2023-07-25T19:41:02.320Z,100.00
2023-07-25T19:43:30.986Z,100.00
2023-07-25T19:46:05.211Z,100.00
2023-07-25T19:48:33.779Z,100.00
2023-07-25T19:51:16.070Z,100.00
2023-07-25T19:53:44.509Z,100.00
2023-07-25T19:56:12.950Z,100.00
2023-07-25T19:58:41.528Z,100.00
2023-07-25T20:01:13.258Z,100.00
2023-07-25T20:03:42.084Z,100.00
2023-07-25T20:06:11.059Z,100.00
2023-07-25T20:08:39.479Z,100.00
2023-07-25T20:11:08.769Z,100.00
2023-07-25T20:13:37.642Z,100.00
2023-07-25T20:16:06.475Z,100.00
2023-07-25T20:18:34.842Z,100.00
2023-07-25T20:21:11.252Z,100.00
2023-07-25T20:23:40.060Z,100.00
2023-07-25T20:26:09.236Z,100.00
2023-07-25T20:28:37.587Z,100.00
2023-07-25T20:31:06.091Z,100.00
2023-07-25T20:33:35.779Z,100.00
2023-07-25T20:36:04.542Z,100.00
2023-07-25T20:38:34.059Z,100.00
2023-07-25T20:41:04.400Z,100.00
2023-07-25T20:43:32.824Z,100.00
2023-07-25T20:46:05.001Z,100.00
2023-07-25T20:48:33.914Z,100.00
2023-07-25T20:51:04.042Z,100.00
2023-07-25T20:53:32.318Z,100.00
2023-07-25T20:56:02.649Z,100.00
2023-07-25T20:58:31.722Z,100.00
2023-07-25T21:01:00.167Z,100.00
2023-07-25T21:03:29.451Z,100.00
2023-07-25T21:05:57.927Z,100.00
2023-07-25T21:08:27.622Z,100.00
2023-07-25T21:10:57.906Z,100.00
2023-07-25T21:13:26.466Z,100.00
2023-07-25T21:15:55.377Z,100.00
2023-07-25T21:18:24.144Z,100.00
2023-07-25T21:20:52.899Z,100.00
2023-07-25T21:23:26.971Z,100.00
2023-07-25T21:25:55.918Z,100.00
2023-07-25T21:28:24.069Z,100.00
2023-07-25T21:30:52.651Z,100.00
2023-07-25T21:33:21.163Z,100.00
2023-07-25T21:35:50.976Z,100.00
2023-07-25T21:38:19.346Z,100.00
2023-07-25T21:40:47.778Z,100.00
2023-07-25T21:43:15.968Z,100.00
2023-07-25T21:45:44.511Z,100.00
2023-07-25T21:48:13.160Z,100.00
2023-07-25T21:50:41.561Z,100.00
2023-07-25T21:53:10.033Z,100.00
2023-07-25T21:55:38.279Z,100.00
2023-07-25T21:58:07.178Z,100.00
2023-07-25T22:00:35.547Z,100.00
2023-07-25T22:03:04.008Z,100.00
2023-07-25T22:05:32.141Z,100.00
2023-07-25T22:08:00.718Z,100.00
2023-07-25T22:10:29.219Z,100.00
2023-07-25T22:12:57.548Z,100.00
2023-07-25T22:15:26.010Z,100.00
2023-07-25T22:17:55.536Z,100.00
2023-07-25T22:20:25.813Z,100.00
2023-07-25T22:22:56.428Z,100.00
2023-07-25T22:25:24.740Z,100.00
2023-07-25T22:27:54.603Z,100.00
2023-07-25T22:30:23.909Z,100.00
2023-07-25T22:32:51.981Z,100.00
2023-07-25T22:35:20.629Z,100.00
2023-07-25T22:38:03.939Z,100.00
2023-07-25T22:40:32.426Z,100.00
2023-07-25T22:43:01.630Z,100.00
2023-07-25T22:45:31.030Z,100.00
2023-07-25T22:48:00.008Z,100.00
2023-07-25T22:50:28.208Z,100.00
2023-07-25T22:52:56.588Z,100.00
2023-07-25T22:55:24.741Z,100.00
2023-07-25T22:57:52.888Z,100.00
2023-07-25T23:00:21.328Z,100.00
2023-07-25T23:02:51.143Z,100.00
2023-07-25T23:05:19.523Z,100.00
2023-07-25T23:07:47.854Z,100.00
2023-07-25T23:10:16.727Z,100.00
2023-07-25T23:12:45.432Z,100.00
2023-07-25T23:15:14.968Z,100.00
2023-07-25T23:17:43.343Z,100.00
2023-07-25T23:20:12.577Z,100.00
2023-07-25T23:22:41.146Z,100.00
2023-07-25T23:25:09.591Z,100.00
2023-07-25T23:27:38.523Z,100.00
2023-07-25T23:30:07.672Z,100.00
2023-07-25T23:32:35.896Z,100.00
2023-07-25T23:35:04.305Z,100.00
2023-07-25T23:37:32.696Z,100.00
2023-07-25T23:40:00.892Z,100.00
2023-07-25T23:42:29.256Z,100.00
2023-07-25T23:44:57.693Z,100.00
2023-07-25T23:47:25.970Z,100.00
2023-07-25T23:49:54.391Z,100.00
2023-07-25T23:52:22.902Z,100.00
2023-07-25T23:54:51.260Z,100.00
2023-07-25T23:57:19.780Z,100.00
2023-07-25T23:59:48.029Z,100.00
